Nisshoumaru — JD3093 — position and weather

sailwx.info

Track history (hours):
 
Tides and Currents Weather Stations Pressure Air Temp Water Temp Dewpoint Dewpoint Depression Visibility Wind Speed Wind Dir Waves Ship Positions

Nisshoumaru

Last reported at 2015-Mar-04 08:33 UTC. Time now 2015-Mar-04 08:37 UTC.
Position N 34°24' E 135°10'.

Length 76 m; draft 4 m.

Type: Cargo ship. MMSI: 431001549.

Date/timePositionNaut miles runAvg speedWind from/ knotsBaromVisibWave heightAir tempDewpointWater temp
2015-Mar-04 08:33N 34°24' E 135°10'0 0.0
2015-Mar-04 07:33N 34°24' E 135°10'0 0.1
2015-Mar-04 06:33N 34°24' E 135°10'0 0.0
2015-Mar-04 05:32N 34°24' E 135°10'0 0.0
2015-Mar-04 04:33N 34°24' E 135°10'0 0.1
2015-Mar-04 03:34N 34°24' E 135°10'0 0.0
2015-Mar-04 02:33N 34°24' E 135°10'0 0.0
2015-Mar-04 01:33N 34°24' E 135°10'0 0.0
2015-Mar-04 00:34N 34°24' E 135°10'0 0.0
2015-Mar-03 23:32N 34°24' E 135°10'0 0.0
2015-Mar-03 22:33N 34°24' E 135°10'0 0.0
2015-Mar-03 21:33N 34°24' E 135°10'0 0.0
2015-Mar-03 20:33N 34°24' E 135°10'0 0.0
2015-Mar-03 19:33N 34°24' E 135°10'0 0.0
2015-Mar-03 18:33N 34°24' E 135°10'0 0.1
2015-Mar-03 17:33N 34°24' E 135°10'0 0.0
2015-Mar-03 16:33N 34°24' E 135°10'0 0.0
2015-Mar-03 15:32N 34°24' E 135°10'0 0.1
2015-Mar-03 14:33N 34°24' E 135°10'0 0.1
2015-Mar-03 13:30N 34°24' E 135°10'0 0.0
2015-Mar-03 12:33N 34°24' E 135°10'0 0.1
2015-Mar-03 11:33N 34°24' E 135°10'0 0.0
2015-Mar-03 10:33N 34°24' E 135°10'0 0.0
2015-Mar-03 09:33N 34°24' E 135°10'0 0.0
2015-Mar-03 08:33N 34°24' E 135°10'1111.2
2015-Mar-03 07:33N 34°33' E 135°18'8 1.1
2015-Mar-03 00:10N 34°35' E 135°27'0 0.0
2015-Mar-02 23:32N 34°35' E 135°27'0 0.0
2015-Mar-02 22:07N 34°35' E 135°27'3 5.8
2015-Mar-02 21:34N 34°36' E 135°23'1 0.8
2015-Mar-02 20:33N 34°37' E 135°22'0 0.1
2015-Mar-02 19:33N 34°37' E 135°22'0 0.0
2015-Mar-02 18:30N 34°37' E 135°22'0 0.0
2015-Mar-02 17:33N 34°37' E 135°22'0 0.0
2015-Mar-02 16:33N 34°37' E 135°22'0 0.0
2015-Mar-02 15:33N 34°37' E 135°22'0 0.0
2015-Mar-02 14:33N 34°37' E 135°22'0 0.0
2015-Mar-02 13:33N 34°37' E 135°22'0 0.0
2015-Mar-02 12:33N 34°37' E 135°22'0 0.0
2015-Mar-02 11:34N 34°37' E 135°22'0 0.0
2015-Mar-02 10:34N 34°37' E 135°22'0 0.1
2015-Mar-02 09:33N 34°37' E 135°22'0 0.2
2015-Mar-02 08:34N 34°37' E 135°22'4 4.0
2015-Mar-02 07:32N 34°40' E 135°25'0 0.0
2015-Mar-02 06:33N 34°40' E 135°25'0 0.0
2015-Mar-02 05:33N 34°40' E 135°25'0 0.0
2015-Mar-02 04:33N 34°40' E 135°25'0 0.0
2015-Mar-02 03:30N 34°40' E 135°25'0 0.0
2015-Mar-02 02:30N 34°40' E 135°25'0 0.0
2015-Mar-02 01:27N 34°40' E 135°25'0 0.6
2015-Mar-02 00:33N 34°40' E 135°25'4 3.7
2015-Mar-01 23:33N 34°37' E 135°22'0 0.1
2015-Mar-01 22:34N 34°37' E 135°22'0 0.0
2015-Mar-01 21:33N 34°37' E 135°22'0 0.0
2015-Mar-01 20:33N 34°37' E 135°22'0 0.0
2015-Mar-01 19:33N 34°37' E 135°22'0 0.0
2015-Mar-01 18:32N 34°37' E 135°22'0 0.0
2015-Mar-01 17:33N 34°37' E 135°22'0 0.0
2015-Mar-01 16:33N 34°37' E 135°22'0 0.0
2015-Mar-01 15:34N 34°37' E 135°22'0 0.0
2015-Mar-01 14:33N 34°37' E 135°22'0 0.0
2015-Mar-01 13:33N 34°37' E 135°22'0 0.0
2015-Mar-01 12:33N 34°37' E 135°22'0 0.0
2015-Mar-01 11:33N 34°37' E 135°22'0 0.0
2015-Mar-01 10:33N 34°37' E 135°22'0 0.1
2015-Mar-01 09:34N 34°37' E 135°22'0 0.0
2015-Mar-01 08:34N 34°37' E 135°22'0 0.0
2015-Mar-01 07:34N 34°37' E 135°22'0 0.0
2015-Mar-01 06:34N 34°37' E 135°22'0 0.0
2015-Mar-01 05:33N 34°37' E 135°22'0 0.0
2015-Mar-01 04:33N 34°37' E 135°22'0 0.0
2015-Mar-01 03:29N 34°37' E 135°22'0 0.1
2015-Mar-01 02:33N 34°37' E 135°22'0 0.0
2015-Mar-01 01:31N 34°37' E 135°22'8 8.7
2015-Mar-01 00:33N 34°31' E 135°15'1312.3
2015-Feb-28 23:32N 34°22' E 135°05'1111.5
2015-Feb-28 22:33N 34°11' E 134°60'23310.4
2015-Feb-28 00:10N 34°56' E 139°37'10 9.5
2015-Feb-27 23:09N 34°52' E 139°49'  
Track history (hours):
 
Tides and Currents Weather Stations Pressure Air Temp Water Temp Dewpoint Dewpoint Depression Visibility Wind Speed Wind Dir Waves Ship Positions

Nisshoumaru

Last reported at 2015-Mar-04 08:33 UTC. Time now 2015-Mar-04 08:37 UTC.
Position N 34°24' E 135°10'.

Length 76 m; draft 4 m.

Type: Cargo ship. MMSI: 431001549.

Date/timePositionNaut miles runAvg speedWind from/ knotsBaromVisibWave heightAir tempDewpointWater temp
2015-Mar-04 08:33N 34°24' E 135°10'0 0.0
2015-Mar-04 07:33N 34°24' E 135°10'0 0.1
2015-Mar-04 06:33N 34°24' E 135°10'0 0.0
2015-Mar-04 05:32N 34°24' E 135°10'0 0.0
2015-Mar-04 04:33N 34°24' E 135°10'0 0.1
2015-Mar-04 03:34N 34°24' E 135°10'0 0.0
2015-Mar-04 02:33N 34°24' E 135°10'0 0.0
2015-Mar-04 01:33N 34°24' E 135°10'0 0.0
2015-Mar-04 00:34N 34°24' E 135°10'0 0.0
2015-Mar-03 23:32N 34°24' E 135°10'0 0.0
2015-Mar-03 22:33N 34°24' E 135°10'0 0.0
2015-Mar-03 21:33N 34°24' E 135°10'0 0.0
2015-Mar-03 20:33N 34°24' E 135°10'0 0.0
2015-Mar-03 19:33N 34°24' E 135°10'0 0.0
2015-Mar-03 18:33N 34°24' E 135°10'0 0.1
2015-Mar-03 17:33N 34°24' E 135°10'0 0.0
2015-Mar-03 16:33N 34°24' E 135°10'0 0.0
2015-Mar-03 15:32N 34°24' E 135°10'0 0.1
2015-Mar-03 14:33N 34°24' E 135°10'0 0.1
2015-Mar-03 13:30N 34°24' E 135°10'0 0.0
2015-Mar-03 12:33N 34°24' E 135°10'0 0.1
2015-Mar-03 11:33N 34°24' E 135°10'0 0.0
2015-Mar-03 10:33N 34°24' E 135°10'0 0.0
2015-Mar-03 09:33N 34°24' E 135°10'0 0.0
2015-Mar-03 08:33N 34°24' E 135°10'1111.2
2015-Mar-03 07:33N 34°33' E 135°18'8 1.1
2015-Mar-03 00:10N 34°35' E 135°27'0 0.0
2015-Mar-02 23:32N 34°35' E 135°27'0 0.0
2015-Mar-02 22:07N 34°35' E 135°27'3 5.8
2015-Mar-02 21:34N 34°36' E 135°23'1 0.8
2015-Mar-02 20:33N 34°37' E 135°22'0 0.1
2015-Mar-02 19:33N 34°37' E 135°22'0 0.0
2015-Mar-02 18:30N 34°37' E 135°22'0 0.0
2015-Mar-02 17:33N 34°37' E 135°22'0 0.0
2015-Mar-02 16:33N 34°37' E 135°22'0 0.0
2015-Mar-02 15:33N 34°37' E 135°22'0 0.0
2015-Mar-02 14:33N 34°37' E 135°22'0 0.0
2015-Mar-02 13:33N 34°37' E 135°22'0 0.0
2015-Mar-02 12:33N 34°37' E 135°22'0 0.0
2015-Mar-02 11:34N 34°37' E 135°22'0 0.0
2015-Mar-02 10:34N 34°37' E 135°22'0 0.1
2015-Mar-02 09:33N 34°37' E 135°22'0 0.2
2015-Mar-02 08:34N 34°37' E 135°22'4 4.0
2015-Mar-02 07:32N 34°40' E 135°25'0 0.0
2015-Mar-02 06:33N 34°40' E 135°25'0 0.0
2015-Mar-02 05:33N 34°40' E 135°25'0 0.0
2015-Mar-02 04:33N 34°40' E 135°25'0 0.0
2015-Mar-02 03:30N 34°40' E 135°25'0 0.0
2015-Mar-02 02:30N 34°40' E 135°25'0 0.0
2015-Mar-02 01:27N 34°40' E 135°25'0 0.6
2015-Mar-02 00:33N 34°40' E 135°25'4 3.7
2015-Mar-01 23:33N 34°37' E 135°22'0 0.1
2015-Mar-01 22:34N 34°37' E 135°22'0 0.0
2015-Mar-01 21:33N 34°37' E 135°22'0 0.0
2015-Mar-01 20:33N 34°37' E 135°22'0 0.0
2015-Mar-01 19:33N 34°37' E 135°22'0 0.0
2015-Mar-01 18:32N 34°37' E 135°22'0 0.0
2015-Mar-01 17:33N 34°37' E 135°22'0 0.0
2015-Mar-01 16:33N 34°37' E 135°22'0 0.0
2015-Mar-01 15:34N 34°37' E 135°22'0 0.0
2015-Mar-01 14:33N 34°37' E 135°22'0 0.0
2015-Mar-01 13:33N 34°37' E 135°22'0 0.0
2015-Mar-01 12:33N 34°37' E 135°22'0 0.0
2015-Mar-01 11:33N 34°37' E 135°22'0 0.0
2015-Mar-01 10:33N 34°37' E 135°22'0 0.1
2015-Mar-01 09:34N 34°37' E 135°22'0 0.0
2015-Mar-01 08:34N 34°37' E 135°22'0 0.0
2015-Mar-01 07:34N 34°37' E 135°22'0 0.0
2015-Mar-01 06:34N 34°37' E 135°22'0 0.0
2015-Mar-01 05:33N 34°37' E 135°22'0 0.0
2015-Mar-01 04:33N 34°37' E 135°22'0 0.0
2015-Mar-01 03:29N 34°37' E 135°22'0 0.1
2015-Mar-01 02:33N 34°37' E 135°22'0 0.0
2015-Mar-01 01:31N 34°37' E 135°22'8 8.7
2015-Mar-01 00:33N 34°31' E 135°15'1312.3
2015-Feb-28 23:32N 34°22' E 135°05'1111.5
2015-Feb-28 22:33N 34°11' E 134°60'23310.4
2015-Feb-28 00:10N 34°56' E 139°37'10 9.5
2015-Feb-27 23:09N 34°52' E 139°49'  

Dump ship's entire track history